Mississippi Star — 9HA2441 — position and weather

sailwx.info

Track history (hours):
 
Tides and Currents Weather Stations Pressure Air Temp Water Temp Dewpoint Dewpoint Depression Visibility Wind Speed Wind Dir Waves Ship Positions

Mississippi Star

Last reported at 2017-Sep-24 14:00 UTC. Time now 2017-Sep-24 14:16 UTC.
Position N 51°15' E 004°22'.

Length 128 m; draft 8.6 m.

Type: Ship. MMSI: 248621000.

Date/timePositionNaut miles runAvg speedWind from/ knotsBaromVisibWave heightAir tempDewpointWater temp
2017-Sep-24 14:00N 51°15' E 004°22'0 0.0
2017-Sep-24 13:30N 51°15' E 004°22'0 0.0
2017-Sep-24 13:00N 51°15' E 004°22'0 0.0
2017-Sep-24 12:30N 51°15' E 004°22'0 0.0
2017-Sep-24 12:00N 51°15' E 004°22'0 0.0
2017-Sep-24 11:27N 51°15' E 004°22'0 0.0
2017-Sep-24 11:00N 51°15' E 004°22'0 0.0
2017-Sep-24 10:30N 51°15' E 004°22'0 0.0
2017-Sep-24 09:57N 51°15' E 004°22'0 0.0
2017-Sep-24 09:30N 51°15' E 004°22'0 0.0
2017-Sep-24 09:00N 51°15' E 004°22'0 0.0
2017-Sep-24 08:30N 51°15' E 004°22'0 0.0
2017-Sep-24 08:00N 51°15' E 004°22'0 0.0
2017-Sep-24 07:30N 51°15' E 004°22'0 0.0
2017-Sep-24 07:00N 51°15' E 004°22'0 0.0
2017-Sep-24 06:30N 51°15' E 004°22'0 0.0
2017-Sep-24 06:00N 51°15' E 004°22'0 0.0
2017-Sep-24 05:30N 51°15' E 004°22'0 0.0
2017-Sep-24 05:00N 51°15' E 004°22'0 0.0
2017-Sep-24 04:30N 51°15' E 004°22'0 0.0
2017-Sep-24 04:00N 51°15' E 004°22'0 0.0
2017-Sep-24 03:30N 51°15' E 004°22'0 0.0
2017-Sep-24 03:00N 51°15' E 004°22'0 0.0
2017-Sep-24 02:30N 51°15' E 004°22'0 0.0
2017-Sep-24 02:00N 51°15' E 004°22'0 0.0
2017-Sep-24 01:30N 51°15' E 004°22'0 0.0
2017-Sep-24 01:00N 51°15' E 004°22'0 0.0
2017-Sep-24 00:30N 51°15' E 004°22'0 0.0
2017-Sep-24 00:00N 51°15' E 004°22'0 0.0
2017-Sep-23 23:30N 51°15' E 004°22'0 0.0
2017-Sep-23 23:00N 51°15' E 004°22'0 0.0
2017-Sep-23 22:30N 51°15' E 004°22'0 0.0
2017-Sep-23 22:00N 51°15' E 004°22'0 0.0
2017-Sep-23 21:30N 51°15' E 004°22'0 0.0
2017-Sep-23 21:00N 51°15' E 004°22'0 0.0
2017-Sep-23 20:30N 51°15' E 004°22'0 0.0
2017-Sep-23 19:54N 51°15' E 004°22'285 5.8
2017-Sep-21 19:06N 49°51' W 002°46'212.9
2017-Sep-21 18:58N 49°50' W 002°49'712.6
2017-Sep-21 18:26N 49°48' W 002°59'512.4
2017-Sep-21 18:00N 49°46' W 003°06'612.1
2017-Sep-21 17:30N 49°43' W 003°14'611.9
2017-Sep-21 17:00N 49°40' W 003°22'711.7
2017-Sep-21 16:26N 49°36' W 003°31'1511.2
2017-Sep-21 15:04N 49°29' W 003°51'410.7
2017-Sep-21 14:44N 49°27' W 003°56'310.5
2017-Sep-21 14:29N 49°26' W 003°59'710.1
2017-Sep-21 13:46N 49°22' W 004°09'3 9.8
2017-Sep-21 13:30N 49°21' W 004°13'6 9.5
2017-Sep-21 12:54N 49°18' W 004°20'4 9.1
2017-Sep-21 12:30N 49°16' W 004°25'5 8.8
2017-Sep-21 11:59N 49°14' W 004°31'18 8.5
2017-Sep-21 09:53N 49°05' W 004°55'4 8.7
2017-Sep-21 09:26N 49°03' W 004°60'4 8.9
2017-Sep-21 08:58N 49°01' W 005°05'4 8.9
2017-Sep-21 08:30N 48°58' W 005°11'5 9.4
2017-Sep-21 08:00N 48°56' W 005°17'5 9.9
2017-Sep-21 07:30N 48°53' W 005°23'  
2017-Sep-18 23:04N 39°46' W 009°50'1 9.3
2017-Sep-18 23:00N 39°45' W 009°50'6 9.4
2017-Sep-18 22:21N 39°39' W 009°50'11 9.7
2017-Sep-18 21:13N 39°28' W 009°50'2 9.6
2017-Sep-18 21:00N 39°26' W 009°50'5 9.4
2017-Sep-18 20:30N 39°21' W 009°50'5 9.7
2017-Sep-18 20:00N 39°17' W 009°51'5 9.9
2017-Sep-18 19:30N 39°12' W 009°51'5 9.9
2017-Sep-18 19:00N 39°07' W 009°51'510.0
2017-Sep-18 18:30N 39°02' W 009°51'5 9.9
2017-Sep-18 18:00N 38°57' W 009°51'5 9.4
2017-Sep-18 17:30N 38°52' W 009°51'5 9.3
2017-Sep-18 17:00N 38°47' W 009°51'5 9.3
2017-Sep-18 16:30N 38°43' W 009°51'5 9.2
2017-Sep-18 16:00N 38°38' W 009°50'5 9.1
2017-Sep-18 15:30N 38°34' W 009°48'5 9.1
2017-Sep-18 15:00N 38°29' W 009°47'5 9.8
2017-Sep-18 14:30N 38°25' W 009°46'5 9.4
2017-Sep-18 14:00N 38°20' W 009°45'5 9.5
2017-Sep-18 13:30N 38°15' W 009°43'5 9.9
2017-Sep-18 13:00N 38°11' W 009°42'5 9.5
2017-Sep-18 12:30N 38°06' W 009°40'5 9.5
2017-Sep-18 12:00N 38°01' W 009°39'5 9.6
2017-Sep-18 11:30N 37°57' W 009°38'5 9.4
2017-Sep-18 11:00N 37°52' W 009°37'5 9.5
2017-Sep-18 10:30N 37°47' W 009°35'510.0
2017-Sep-18 10:00N 37°42' W 009°34'1210.0
2017-Sep-18 08:45N 37°30' W 009°30'3 9.6
2017-Sep-18 08:24N 37°27' W 009°29'410.0
2017-Sep-18 07:57N 37°23' W 009°28'511.0
2017-Sep-18 07:27N 37°17' W 009°26'8 9.7
2017-Sep-18 06:40N 37°10' W 009°24'510.3
2017-Sep-18 06:11N 37°05' W 009°23'210.1
2017-Sep-18 06:00N 37°03' W 009°22'5 9.5
2017-Sep-18 05:30N 36°59' W 009°21'5 9.2
2017-Sep-18 05:00N 36°54' W 009°20'4 9.1
2017-Sep-18 04:30N 36°50' W 009°16'5 9.7
2017-Sep-18 04:00N 36°47' W 009°12'5 9.6
2017-Sep-18 03:29N 36°44' W 009°07'510.0
2017-Sep-18 03:00N 36°43' W 009°01'5 9.7
2017-Sep-18 02:29N 36°41' W 008°55'5 9.5
2017-Sep-18 02:00N 36°40' W 008°50'5 9.4
2017-Sep-18 01:30N 36°38' W 008°44'5 9.5
2017-Sep-18 00:56N 36°36' W 008°38'4 9.7
2017-Sep-18 00:30N 36°35' W 008°33'5 9.9
2017-Sep-17 23:57N 36°33' W 008°26'2210.1
2017-Sep-17 21:46N 36°27' W 008°00'310.4
2017-Sep-17 21:30N 36°26' W 007°57'510.6
2017-Sep-17 21:00N 36°24' W 007°51'510.3
2017-Sep-17 20:30N 36°22' W 007°45'510.2
2017-Sep-17 19:59N 36°21' W 007°39'510.0
2017-Sep-17 19:30N 36°19' W 007°33'106 8.7
2017-Sep-17 07:14N 36°01' W 005°23'2 9.7
2017-Sep-17 07:00N 36°01' W 005°21'5 9.3
2017-Sep-17 06:29N 36°02' W 005°15'214 8.7
2017-Sep-16 05:52N 37°13' W 001°04'410.5
2017-Sep-16 05:30N 37°16' W 001°00'510.5
2017-Sep-16 05:00N 37°19' W 000°55'510.5
2017-Sep-16 04:30N 37°23' W 000°50'510.7
2017-Sep-16 04:00N 37°26' W 000°45'510.9
2017-Sep-16 03:30N 37°30' W 000°40'510.9
2017-Sep-16 03:00N 37°33' W 000°35'510.7
2017-Sep-16 02:30N 37°37' W 000°31'510.7
2017-Sep-16 02:00N 37°42' W 000°27'710.6
2017-Sep-16 01:22N 37°48' W 000°22'610.7
2017-Sep-16 00:51N 37°52' W 000°19'410.7
2017-Sep-16 00:30N 37°56' W 000°16'510.8
2017-Sep-16 00:00N 38°00' W 000°13'12211.0
2017-Sep-15 12:59N 39°32' E 001°29'1410.5
2017-Sep-15 11:37N 39°42' E 001°42'110.4
2017-Sep-15 11:30N 39°43' E 001°44'510.6
2017-Sep-15 11:00N 39°47' E 001°48'510.8
2017-Sep-15 10:30N 39°50' E 001°54'510.7
2017-Sep-15 10:00N 39°54' E 001°58'510.4
2017-Sep-15 09:30N 39°58' E 002°03'510.4
2017-Sep-15 09:00N 40°02' E 002°08'510.3
2017-Sep-15 08:30N 40°05' E 002°13'510.4
2017-Sep-15 08:00N 40°09' E 002°18'510.4
2017-Sep-15 07:30N 40°13' E 002°22'510.4
2017-Sep-15 07:00N 40°16' E 002°27'612.1
2017-Sep-15 06:30N 40°20' E 002°33'510.3
2017-Sep-15 06:00N 40°25' E 002°37'5 9.8
2017-Sep-15 05:30N 40°29' E 002°41'5 9.6
2017-Sep-15 05:00N 40°32' E 002°45'5 9.4
2017-Sep-15 04:30N 40°36' E 002°49'5 9.3
2017-Sep-15 04:00N 40°40' E 002°52'5 9.6
2017-Sep-15 03:30N 40°44' E 002°56'5 9.9
2017-Sep-15 03:00N 40°46' E 003°02'510.8
2017-Sep-15 02:30N 40°48' E 003°08'611.4
2017-Sep-15 02:00N 40°50' E 003°15'611.3
2017-Sep-15 01:30N 40°52' E 003°22'10610.4
2017-Sep-14 15:19N 42°08' E 005°02'510.0
2017-Sep-14 14:51N 42°11' E 005°07'310.0
2017-Sep-14 14:30N 42°13' E 005°10'  
Track history (hours):
 
Tides and Currents Weather Stations Pressure Air Temp Water Temp Dewpoint Dewpoint Depression Visibility Wind Speed Wind Dir Waves Ship Positions

Mississippi Star

Last reported at 2017-Sep-24 14:00 UTC. Time now 2017-Sep-24 14:16 UTC.
Position N 51°15' E 004°22'.

Length 128 m; draft 8.6 m.

Type: Ship. MMSI: 248621000.

Date/timePositionNaut miles runAvg speedWind from/ knotsBaromVisibWave heightAir tempDewpointWater temp
2017-Sep-24 14:00N 51°15' E 004°22'0 0.0
2017-Sep-24 13:30N 51°15' E 004°22'0 0.0
2017-Sep-24 13:00N 51°15' E 004°22'0 0.0
2017-Sep-24 12:30N 51°15' E 004°22'0 0.0
2017-Sep-24 12:00N 51°15' E 004°22'0 0.0
2017-Sep-24 11:27N 51°15' E 004°22'0 0.0
2017-Sep-24 11:00N 51°15' E 004°22'0 0.0
2017-Sep-24 10:30N 51°15' E 004°22'0 0.0
2017-Sep-24 09:57N 51°15' E 004°22'0 0.0
2017-Sep-24 09:30N 51°15' E 004°22'0 0.0
2017-Sep-24 09:00N 51°15' E 004°22'0 0.0
2017-Sep-24 08:30N 51°15' E 004°22'0 0.0
2017-Sep-24 08:00N 51°15' E 004°22'0 0.0
2017-Sep-24 07:30N 51°15' E 004°22'0 0.0
2017-Sep-24 07:00N 51°15' E 004°22'0 0.0
2017-Sep-24 06:30N 51°15' E 004°22'0 0.0
2017-Sep-24 06:00N 51°15' E 004°22'0 0.0
2017-Sep-24 05:30N 51°15' E 004°22'0 0.0
2017-Sep-24 05:00N 51°15' E 004°22'0 0.0
2017-Sep-24 04:30N 51°15' E 004°22'0 0.0
2017-Sep-24 04:00N 51°15' E 004°22'0 0.0
2017-Sep-24 03:30N 51°15' E 004°22'0 0.0
2017-Sep-24 03:00N 51°15' E 004°22'0 0.0
2017-Sep-24 02:30N 51°15' E 004°22'0 0.0
2017-Sep-24 02:00N 51°15' E 004°22'0 0.0
2017-Sep-24 01:30N 51°15' E 004°22'0 0.0
2017-Sep-24 01:00N 51°15' E 004°22'0 0.0
2017-Sep-24 00:30N 51°15' E 004°22'0 0.0
2017-Sep-24 00:00N 51°15' E 004°22'0 0.0
2017-Sep-23 23:30N 51°15' E 004°22'0 0.0
2017-Sep-23 23:00N 51°15' E 004°22'0 0.0
2017-Sep-23 22:30N 51°15' E 004°22'0 0.0
2017-Sep-23 22:00N 51°15' E 004°22'0 0.0
2017-Sep-23 21:30N 51°15' E 004°22'0 0.0
2017-Sep-23 21:00N 51°15' E 004°22'0 0.0
2017-Sep-23 20:30N 51°15' E 004°22'0 0.0
2017-Sep-23 19:54N 51°15' E 004°22'285 5.8
2017-Sep-21 19:06N 49°51' W 002°46'212.9
2017-Sep-21 18:58N 49°50' W 002°49'712.6
2017-Sep-21 18:26N 49°48' W 002°59'512.4
2017-Sep-21 18:00N 49°46' W 003°06'612.1
2017-Sep-21 17:30N 49°43' W 003°14'611.9
2017-Sep-21 17:00N 49°40' W 003°22'711.7
2017-Sep-21 16:26N 49°36' W 003°31'1511.2
2017-Sep-21 15:04N 49°29' W 003°51'410.7
2017-Sep-21 14:44N 49°27' W 003°56'310.5
2017-Sep-21 14:29N 49°26' W 003°59'710.1
2017-Sep-21 13:46N 49°22' W 004°09'3 9.8
2017-Sep-21 13:30N 49°21' W 004°13'6 9.5
2017-Sep-21 12:54N 49°18' W 004°20'4 9.1
2017-Sep-21 12:30N 49°16' W 004°25'5 8.8
2017-Sep-21 11:59N 49°14' W 004°31'18 8.5
2017-Sep-21 09:53N 49°05' W 004°55'4 8.7
2017-Sep-21 09:26N 49°03' W 004°60'4 8.9
2017-Sep-21 08:58N 49°01' W 005°05'4 8.9
2017-Sep-21 08:30N 48°58' W 005°11'5 9.4
2017-Sep-21 08:00N 48°56' W 005°17'5 9.9
2017-Sep-21 07:30N 48°53' W 005°23'  
2017-Sep-18 23:04N 39°46' W 009°50'1 9.3
2017-Sep-18 23:00N 39°45' W 009°50'6 9.4
2017-Sep-18 22:21N 39°39' W 009°50'11 9.7
2017-Sep-18 21:13N 39°28' W 009°50'2 9.6
2017-Sep-18 21:00N 39°26' W 009°50'5 9.4
2017-Sep-18 20:30N 39°21' W 009°50'5 9.7
2017-Sep-18 20:00N 39°17' W 009°51'5 9.9
2017-Sep-18 19:30N 39°12' W 009°51'5 9.9
2017-Sep-18 19:00N 39°07' W 009°51'510.0
2017-Sep-18 18:30N 39°02' W 009°51'5 9.9
2017-Sep-18 18:00N 38°57' W 009°51'5 9.4
2017-Sep-18 17:30N 38°52' W 009°51'5 9.3
2017-Sep-18 17:00N 38°47' W 009°51'5 9.3
2017-Sep-18 16:30N 38°43' W 009°51'5 9.2
2017-Sep-18 16:00N 38°38' W 009°50'5 9.1
2017-Sep-18 15:30N 38°34' W 009°48'5 9.1
2017-Sep-18 15:00N 38°29' W 009°47'5 9.8
2017-Sep-18 14:30N 38°25' W 009°46'5 9.4
2017-Sep-18 14:00N 38°20' W 009°45'5 9.5
2017-Sep-18 13:30N 38°15' W 009°43'5 9.9
2017-Sep-18 13:00N 38°11' W 009°42'5 9.5
2017-Sep-18 12:30N 38°06' W 009°40'5 9.5
2017-Sep-18 12:00N 38°01' W 009°39'5 9.6
2017-Sep-18 11:30N 37°57' W 009°38'5 9.4
2017-Sep-18 11:00N 37°52' W 009°37'5 9.5
2017-Sep-18 10:30N 37°47' W 009°35'510.0
2017-Sep-18 10:00N 37°42' W 009°34'1210.0
2017-Sep-18 08:45N 37°30' W 009°30'3 9.6
2017-Sep-18 08:24N 37°27' W 009°29'410.0
2017-Sep-18 07:57N 37°23' W 009°28'511.0
2017-Sep-18 07:27N 37°17' W 009°26'8 9.7
2017-Sep-18 06:40N 37°10' W 009°24'510.3
2017-Sep-18 06:11N 37°05' W 009°23'210.1
2017-Sep-18 06:00N 37°03' W 009°22'5 9.5
2017-Sep-18 05:30N 36°59' W 009°21'5 9.2
2017-Sep-18 05:00N 36°54' W 009°20'4 9.1
2017-Sep-18 04:30N 36°50' W 009°16'5 9.7
2017-Sep-18 04:00N 36°47' W 009°12'5 9.6
2017-Sep-18 03:29N 36°44' W 009°07'510.0
2017-Sep-18 03:00N 36°43' W 009°01'5 9.7
2017-Sep-18 02:29N 36°41' W 008°55'5 9.5
2017-Sep-18 02:00N 36°40' W 008°50'5 9.4
2017-Sep-18 01:30N 36°38' W 008°44'5 9.5
2017-Sep-18 00:56N 36°36' W 008°38'4 9.7
2017-Sep-18 00:30N 36°35' W 008°33'5 9.9
2017-Sep-17 23:57N 36°33' W 008°26'2210.1
2017-Sep-17 21:46N 36°27' W 008°00'310.4
2017-Sep-17 21:30N 36°26' W 007°57'510.6
2017-Sep-17 21:00N 36°24' W 007°51'510.3
2017-Sep-17 20:30N 36°22' W 007°45'510.2
2017-Sep-17 19:59N 36°21' W 007°39'510.0
2017-Sep-17 19:30N 36°19' W 007°33'106 8.7
2017-Sep-17 07:14N 36°01' W 005°23'2 9.7
2017-Sep-17 07:00N 36°01' W 005°21'5 9.3
2017-Sep-17 06:29N 36°02' W 005°15'214 8.7
2017-Sep-16 05:52N 37°13' W 001°04'410.5
2017-Sep-16 05:30N 37°16' W 001°00'510.5
2017-Sep-16 05:00N 37°19' W 000°55'510.5
2017-Sep-16 04:30N 37°23' W 000°50'510.7
2017-Sep-16 04:00N 37°26' W 000°45'510.9
2017-Sep-16 03:30N 37°30' W 000°40'510.9
2017-Sep-16 03:00N 37°33' W 000°35'510.7
2017-Sep-16 02:30N 37°37' W 000°31'510.7
2017-Sep-16 02:00N 37°42' W 000°27'710.6
2017-Sep-16 01:22N 37°48' W 000°22'610.7
2017-Sep-16 00:51N 37°52' W 000°19'410.7
2017-Sep-16 00:30N 37°56' W 000°16'510.8
2017-Sep-16 00:00N 38°00' W 000°13'12211.0
2017-Sep-15 12:59N 39°32' E 001°29'1410.5
2017-Sep-15 11:37N 39°42' E 001°42'110.4
2017-Sep-15 11:30N 39°43' E 001°44'510.6
2017-Sep-15 11:00N 39°47' E 001°48'510.8
2017-Sep-15 10:30N 39°50' E 001°54'510.7
2017-Sep-15 10:00N 39°54' E 001°58'510.4
2017-Sep-15 09:30N 39°58' E 002°03'510.4
2017-Sep-15 09:00N 40°02' E 002°08'510.3
2017-Sep-15 08:30N 40°05' E 002°13'510.4
2017-Sep-15 08:00N 40°09' E 002°18'510.4
2017-Sep-15 07:30N 40°13' E 002°22'510.4
2017-Sep-15 07:00N 40°16' E 002°27'612.1
2017-Sep-15 06:30N 40°20' E 002°33'510.3
2017-Sep-15 06:00N 40°25' E 002°37'5 9.8
2017-Sep-15 05:30N 40°29' E 002°41'5 9.6
2017-Sep-15 05:00N 40°32' E 002°45'5 9.4
2017-Sep-15 04:30N 40°36' E 002°49'5 9.3
2017-Sep-15 04:00N 40°40' E 002°52'5 9.6
2017-Sep-15 03:30N 40°44' E 002°56'5 9.9
2017-Sep-15 03:00N 40°46' E 003°02'510.8
2017-Sep-15 02:30N 40°48' E 003°08'611.4
2017-Sep-15 02:00N 40°50' E 003°15'611.3
2017-Sep-15 01:30N 40°52' E 003°22'10610.4
2017-Sep-14 15:19N 42°08' E 005°02'510.0
2017-Sep-14 14:51N 42°11' E 005°07'310.0
2017-Sep-14 14:30N 42°13' E 005°10'  

Dump ship's entire track history